sensor_id;sensor_type;location;lat;lon;timestamp;temperature;humidity
39067;DHT22;24821;51.988;6.020;2022-08-03T00:00:38;22.30;95.20
39067;DHT22;24821;51.988;6.020;2022-08-03T00:03:04;22.30;95.30
39067;DHT22;24821;51.988;6.020;2022-08-03T00:05:30;22.20;95.40
39067;DHT22;24821;51.988;6.020;2022-08-03T00:07:58;22.10;95.60
39067;DHT22;24821;51.988;6.020;2022-08-03T00:10:23;22.10;95.80
39067;DHT22;24821;51.988;6.020;2022-08-03T00:12:49;22.00;95.90
39067;DHT22;24821;51.988;6.020;2022-08-03T00:15:15;22.00;95.90
39067;DHT22;24821;51.988;6.020;2022-08-03T00:17:41;22.00;96.00
39067;DHT22;24821;51.988;6.020;2022-08-03T00:20:06;22.00;96.10
39067;DHT22;24821;51.988;6.020;2022-08-03T00:22:34;22.00;96.10
39067;DHT22;24821;51.988;6.020;2022-08-03T00:24:59;22.00;96.10
39067;DHT22;24821;51.988;6.020;2022-08-03T00:27:25;22.00;96.20
39067;DHT22;24821;51.988;6.020;2022-08-03T00:29:50;21.90;96.20
39067;DHT22;24821;51.988;6.020;2022-08-03T00:32:16;21.90;96.30
39067;DHT22;24821;51.988;6.020;2022-08-03T00:34:41;21.90;96.50
39067;DHT22;24821;51.988;6.020;2022-08-03T00:37:07;21.80;96.50
39067;DHT22;24821;51.988;6.020;2022-08-03T00:39:32;21.80;96.50
39067;DHT22;24821;51.988;6.020;2022-08-03T00:42:02;21.80;96.60
39067;DHT22;24821;51.988;6.020;2022-08-03T00:44:27;21.80;96.60
39067;DHT22;24821;51.988;6.020;2022-08-03T00:46:53;21.70;96.60
39067;DHT22;24821;51.988;6.020;2022-08-03T00:49:18;21.70;96.60
39067;DHT22;24821;51.988;6.020;2022-08-03T00:51:44;21.70;96.70
39067;DHT22;24821;51.988;6.020;2022-08-03T00:54:10;21.70;96.70
39067;DHT22;24821;51.988;6.020;2022-08-03T00:56:36;21.60;96.80
39067;DHT22;24821;51.988;6.020;2022-08-03T00:59:02;21.50;96.90
39067;DHT22;24821;51.988;6.020;2022-08-03T01:01:28;21.50;97.00
39067;DHT22;24821;51.988;6.020;2022-08-03T01:03:53;21.40;97.10
39067;DHT22;24821;51.988;6.020;2022-08-03T01:07:10;21.40;97.10
39067;DHT22;24821;51.988;6.020;2022-08-03T01:09:22;21.40;97.20
39067;DHT22;24821;51.988;6.020;2022-08-03T01:15:02;21.30;97.30
39067;DHT22;24821;51.988;6.020;2022-08-03T01:17:43;21.30;97.30
39067;DHT22;24821;51.988;6.020;2022-08-03T01:20:12;21.20;97.40
39067;DHT22;24821;51.988;6.020;2022-08-03T01:22:59;21.20;97.50
39067;DHT22;24821;51.988;6.020;2022-08-03T01:25:39;21.20;97.50
39067;DHT22;24821;51.988;6.020;2022-08-03T01:31:10;21.10;97.60
39067;DHT22;24821;51.988;6.020;2022-08-03T01:33:43;21.00;97.80
39067;DHT22;24821;51.988;6.020;2022-08-03T01:36:13;21.00;97.90
39067;DHT22;24821;51.988;6.020;2022-08-03T01:38:43;21.00;98.00
39067;DHT22;24821;51.988;6.020;2022-08-03T01:41:18;20.90;97.90
39067;DHT22;24821;51.988;6.020;2022-08-03T01:43:46;20.90;98.00
39067;DHT22;24821;51.988;6.020;2022-08-03T01:46:15;20.90;98.00
39067;DHT22;24821;51.988;6.020;2022-08-03T01:48:42;20.90;98.10
39067;DHT22;24821;51.988;6.020;2022-08-03T01:51:09;20.80;98.10
39067;DHT22;24821;51.988;6.020;2022-08-03T01:53:37;20.80;98.10
39067;DHT22;24821;51.988;6.020;2022-08-03T01:56:05;20.80;98.10
39067;DHT22;24821;51.988;6.020;2022-08-03T01:58:34;20.70;98.20
39067;DHT22;24821;51.988;6.020;2022-08-03T02:01:00;20.70;98.20
39067;DHT22;24821;51.988;6.020;2022-08-03T02:03:28;20.60;98.30
39067;DHT22;24821;51.988;6.020;2022-08-03T02:05:56;20.60;98.30
39067;DHT22;24821;51.988;6.020;2022-08-03T02:08:23;20.60;98.40
39067;DHT22;24821;51.988;6.020;2022-08-03T02:10:50;20.60;98.40
39067;DHT22;24821;51.988;6.020;2022-08-03T02:13:18;20.50;98.50
39067;DHT22;24821;51.988;6.020;2022-08-03T02:15:45;20.50;98.60
39067;DHT22;24821;51.988;6.020;2022-08-03T02:18:11;20.40;98.70
39067;DHT22;24821;51.988;6.020;2022-08-03T02:20:40;20.40;98.70
39067;DHT22;24821;51.988;6.020;2022-08-03T02:23:06;20.40;98.80
39067;DHT22;24821;51.988;6.020;2022-08-03T02:25:34;20.40;98.90
39067;DHT22;24821;51.988;6.020;2022-08-03T02:28:08;20.30;99.00
39067;DHT22;24821;51.988;6.020;2022-08-03T02:30:36;20.30;99.10
39067;DHT22;24821;51.988;6.020;2022-08-03T02:33:04;20.20;99.20
39067;DHT22;24821;51.988;6.020;2022-08-03T02:35:32;20.20;99.30
39067;DHT22;24821;51.988;6.020;2022-08-03T02:38:02;20.20;99.30
39067;DHT22;24821;51.988;6.020;2022-08-03T02:40:29;20.20;99.40
39067;DHT22;24821;51.988;6.020;2022-08-03T02:43:00;20.10;99.40
39067;DHT22;24821;51.988;6.020;2022-08-03T02:45:27;20.20;99.50
39067;DHT22;24821;51.988;6.020;2022-08-03T02:47:57;20.10;99.60
39067;DHT22;24821;51.988;6.020;2022-08-03T02:50:25;20.10;99.60
39067;DHT22;24821;51.988;6.020;2022-08-03T02:52:52;20.10;99.60
39067;DHT22;24821;51.988;6.020;2022-08-03T02:55:20;20.10;99.70
39067;DHT22;24821;51.988;6.020;2022-08-03T02:57:47;20.10;99.60
39067;DHT22;24821;51.988;6.020;2022-08-03T03:00:14;20.10;99.70
39067;DHT22;24821;51.988;6.020;2022-08-03T03:02:41;20.10;99.70
39067;DHT22;24821;51.988;6.020;2022-08-03T03:05:08;20.10;99.70
39067;DHT22;24821;51.988;6.020;2022-08-03T03:07:35;20.10;99.70
39067;DHT22;24821;51.988;6.020;2022-08-03T03:10:03;20.00;99.70
39067;DHT22;24821;51.988;6.020;2022-08-03T03:12:30;20.00;99.80
39067;DHT22;24821;51.988;6.020;2022-08-03T03:14:56;20.00;99.90
39067;DHT22;24821;51.988;6.020;2022-08-03T03:17:23;19.90;99.90
39067;DHT22;24821;51.988;6.020;2022-08-03T03:19:50;19.90;99.90
39067;DHT22;24821;51.988;6.020;2022-08-03T03:22:16;19.90;99.90
39067;DHT22;24821;51.988;6.020;2022-08-03T03:24:42;19.80;99.90
39067;DHT22;24821;51.988;6.020;2022-08-03T03:27:08;19.80;99.90
39067;DHT22;24821;51.988;6.020;2022-08-03T03:29:34;19.80;99.90
39067;DHT22;24821;51.988;6.020;2022-08-03T03:32:00;19.80;99.90
39067;DHT22;24821;51.988;6.020;2022-08-03T03:34:28;19.70;99.90
39067;DHT22;24821;51.988;6.020;2022-08-03T03:36:54;19.70;99.90
39067;DHT22;24821;51.988;6.020;2022-08-03T03:39:20;19.70;99.90
39067;DHT22;24821;51.988;6.020;2022-08-03T03:41:45;19.70;99.90
39067;DHT22;24821;51.988;6.020;2022-08-03T03:44:11;19.60;99.90
39067;DHT22;24821;51.988;6.020;2022-08-03T03:46:37;19.60;99.90
39067;DHT22;24821;51.988;6.020;2022-08-03T03:49:05;19.50;99.90
39067;DHT22;24821;51.988;6.020;2022-08-03T03:51:31;19.50;99.90
39067;DHT22;24821;51.988;6.020;2022-08-03T03:53:59;19.50;99.90
39067;DHT22;24821;51.988;6.020;2022-08-03T03:56:25;19.50;99.90
39067;DHT22;24821;51.988;6.020;2022-08-03T03:58:51;19.50;99.90
39067;DHT22;24821;51.988;6.020;2022-08-03T04:01:17;19.50;99.90
39067;DHT22;24821;51.988;6.020;2022-08-03T04:03:43;19.40;99.90
39067;DHT22;24821;51.988;6.020;2022-08-03T04:06:08;19.40;99.90
39067;DHT22;24821;51.988;6.020;2022-08-03T04:08:52;19.40;99.90
39067;DHT22;24821;51.988;6.020;2022-08-03T04:11:51;19.30;99.90
39067;DHT22;24821;51.988;6.020;2022-08-03T04:14:34;19.30;99.90
39067;DHT22;24821;51.988;6.020;2022-08-03T04:17:04;19.30;99.90
39067;DHT22;24821;51.988;6.020;2022-08-03T04:19:35;19.30;99.90
39067;DHT22;24821;51.988;6.020;2022-08-03T04:22:08;19.30;99.90
39067;DHT22;24821;51.988;6.020;2022-08-03T04:24:43;19.30;99.90
39067;DHT22;24821;51.988;6.020;2022-08-03T04:27:12;19.30;99.90
39067;DHT22;24821;51.988;6.020;2022-08-03T04:29:43;19.30;99.90
39067;DHT22;24821;51.988;6.020;2022-08-03T04:32:10;19.30;99.90
39067;DHT22;24821;51.988;6.020;2022-08-03T04:34:36;19.30;99.90
39067;DHT22;24821;51.988;6.020;2022-08-03T04:37:08;19.40;99.90
39067;DHT22;24821;51.988;6.020;2022-08-03T04:39:36;19.50;99.90
39067;DHT22;24821;51.988;6.020;2022-08-03T04:42:06;19.40;99.90
39067;DHT22;24821;51.988;6.020;2022-08-03T04:44:36;19.50;99.90
39067;DHT22;24821;51.988;6.020;2022-08-03T04:47:02;19.60;99.90
39067;DHT22;24821;51.988;6.020;2022-08-03T04:49:29;19.60;99.90
39067;DHT22;24821;51.988;6.020;2022-08-03T04:51:54;19.60;99.90
39067;DHT22;24821;51.988;6.020;2022-08-03T04:54:20;19.70;99.90
39067;DHT22;24821;51.988;6.020;2022-08-03T04:56:46;19.70;99.90
39067;DHT22;24821;51.988;6.020;2022-08-03T04:59:12;19.80;99.90
39067;DHT22;24821;51.988;6.020;2022-08-03T05:01:38;19.80;99.90
39067;DHT22;24821;51.988;6.020;2022-08-03T05:04:05;19.90;99.90
39067;DHT22;24821;51.988;6.020;2022-08-03T05:06:30;20.00;99.90
39067;DHT22;24821;51.988;6.020;2022-08-03T05:08:56;20.00;99.90
39067;DHT22;24821;51.988;6.020;2022-08-03T05:11:21;20.10;99.90
39067;DHT22;24821;51.988;6.020;2022-08-03T05:13:47;20.20;99.90
39067;DHT22;24821;51.988;6.020;2022-08-03T05:16:13;20.30;99.90
39067;DHT22;24821;51.988;6.020;2022-08-03T05:18:40;20.30;99.90
39067;DHT22;24821;51.988;6.020;2022-08-03T05:21:06;20.40;99.90
39067;DHT22;24821;51.988;6.020;2022-08-03T05:23:32;20.50;99.90
39067;DHT22;24821;51.988;6.020;2022-08-03T05:25:57;20.50;99.90
39067;DHT22;24821;51.988;6.020;2022-08-03T05:28:23;20.60;99.90
39067;DHT22;24821;51.988;6.020;2022-08-03T05:30:48;20.60;99.90
39067;DHT22;24821;51.988;6.020;2022-08-03T05:33:14;20.70;99.90
39067;DHT22;24821;51.988;6.020;2022-08-03T05:35:39;20.80;99.90
39067;DHT22;24821;51.988;6.020;2022-08-03T05:38:05;20.70;99.90
39067;DHT22;24821;51.988;6.020;2022-08-03T05:40:31;20.80;99.90
39067;DHT22;24821;51.988;6.020;2022-08-03T05:42:57;20.90;99.90
39067;DHT22;24821;51.988;6.020;2022-08-03T05:45:23;20.90;99.90
39067;DHT22;24821;51.988;6.020;2022-08-03T05:47:49;21.00;99.90
39067;DHT22;24821;51.988;6.020;2022-08-03T05:50:16;21.00;99.90
39067;DHT22;24821;51.988;6.020;2022-08-03T05:52:42;21.10;99.90
39067;DHT22;24821;51.988;6.020;2022-08-03T05:55:09;21.10;99.90
39067;DHT22;24821;51.988;6.020;2022-08-03T05:57:35;21.20;99.90
39067;DHT22;24821;51.988;6.020;2022-08-03T06:00:03;21.30;99.90
39067;DHT22;24821;51.988;6.020;2022-08-03T06:02:29;21.50;99.90
39067;DHT22;24821;51.988;6.020;2022-08-03T06:04:55;21.60;99.90
39067;DHT22;24821;51.988;6.020;2022-08-03T06:07:21;21.60;99.90
39067;DHT22;24821;51.988;6.020;2022-08-03T06:09:47;21.70;99.90
39067;DHT22;24821;51.988;6.020;2022-08-03T06:12:12;21.70;99.70
39067;DHT22;24821;51.988;6.020;2022-08-03T06:14:38;21.80;99.50
39067;DHT22;24821;51.988;6.020;2022-08-03T06:17:04;21.90;99.40
39067;DHT22;24821;51.988;6.020;2022-08-03T06:19:29;22.00;99.20
39067;DHT22;24821;51.988;6.020;2022-08-03T06:21:55;22.10;99.10
39067;DHT22;24821;51.988;6.020;2022-08-03T06:24:20;22.20;98.90
39067;DHT22;24821;51.988;6.020;2022-08-03T06:26:46;22.30;98.80
39067;DHT22;24821;51.988;6.020;2022-08-03T06:29:11;22.30;98.50
39067;DHT22;24821;51.988;6.020;2022-08-03T06:31:37;22.30;98.40
39067;DHT22;24821;51.988;6.020;2022-08-03T06:34:04;22.30;98.20
39067;DHT22;24821;51.988;6.020;2022-08-03T06:36:30;22.40;98.10
39067;DHT22;24821;51.988;6.020;2022-08-03T06:38:59;22.50;98.10
39067;DHT22;24821;51.988;6.020;2022-08-03T06:41:26;22.60;97.90
39067;DHT22;24821;51.988;6.020;2022-08-03T06:43:52;22.70;97.60
39067;DHT22;24821;51.988;6.020;2022-08-03T06:46:18;22.70;97.40
39067;DHT22;24821;51.988;6.020;2022-08-03T06:48:44;22.70;97.10
39067;DHT22;24821;51.988;6.020;2022-08-03T06:51:09;22.80;96.80
39067;DHT22;24821;51.988;6.020;2022-08-03T06:53:35;22.80;96.80
39067;DHT22;24821;51.988;6.020;2022-08-03T06:56:01;22.90;96.70
39067;DHT22;24821;51.988;6.020;2022-08-03T06:58:28;22.90;96.70
39067;DHT22;24821;51.988;6.020;2022-08-03T07:00:54;23.00;96.70
39067;DHT22;24821;51.988;6.020;2022-08-03T07:03:19;23.00;96.70
39067;DHT22;24821;51.988;6.020;2022-08-03T07:05:45;23.00;96.60
39067;DHT22;24821;51.988;6.020;2022-08-03T07:08:11;23.10;96.30
39067;DHT22;24821;51.988;6.020;2022-08-03T07:10:37;23.10;96.30
39067;DHT22;24821;51.988;6.020;2022-08-03T07:13:04;23.20;95.90
39067;DHT22;24821;51.988;6.020;2022-08-03T07:15:29;23.30;95.80
39067;DHT22;24821;51.988;6.020;2022-08-03T07:17:55;23.40;96.00
39067;DHT22;24821;51.988;6.020;2022-08-03T07:20:21;23.40;95.80
39067;DHT22;24821;51.988;6.020;2022-08-03T07:22:46;23.50;95.70
39067;DHT22;24821;51.988;6.020;2022-08-03T07:25:12;23.60;95.40
39067;DHT22;24821;51.988;6.020;2022-08-03T07:27:37;23.70;95.10
39067;DHT22;24821;51.988;6.020;2022-08-03T07:30:07;23.70;94.90
39067;DHT22;24821;51.988;6.020;2022-08-03T07:32:33;23.80;94.70
39067;DHT22;24821;51.988;6.020;2022-08-03T07:34:59;23.80;94.70
39067;DHT22;24821;51.988;6.020;2022-08-03T07:37:25;23.90;94.90
39067;DHT22;24821;51.988;6.020;2022-08-03T07:39:50;24.00;94.80
39067;DHT22;24821;51.988;6.020;2022-08-03T07:42:16;24.00;94.50
39067;DHT22;24821;51.988;6.020;2022-08-03T07:44:42;24.10;94.40
39067;DHT22;24821;51.988;6.020;2022-08-03T07:47:07;24.10;94.30
39067;DHT22;24821;51.988;6.020;2022-08-03T07:49:33;24.20;93.80
39067;DHT22;24821;51.988;6.020;2022-08-03T07:51:58;24.20;93.80
39067;DHT22;24821;51.988;6.020;2022-08-03T07:54:42;24.20;93.80
39067;DHT22;24821;51.988;6.020;2022-08-03T07:57:08;24.30;93.90
39067;DHT22;24821;51.988;6.020;2022-08-03T07:59:33;24.50;93.50
39067;DHT22;24821;51.988;6.020;2022-08-03T08:01:59;24.60;93.40
39067;DHT22;24821;51.988;6.020;2022-08-03T08:04:25;24.80;93.40
39067;DHT22;24821;51.988;6.020;2022-08-03T08:06:50;25.00;92.90
39067;DHT22;24821;51.988;6.020;2022-08-03T08:09:16;25.40;92.60
39067;DHT22;24821;51.988;6.020;2022-08-03T08:11:42;25.80;92.00
39067;DHT22;24821;51.988;6.020;2022-08-03T08:14:07;26.20;91.40
39067;DHT22;24821;51.988;6.020;2022-08-03T08:16:34;26.40;91.10
39067;DHT22;24821;51.988;6.020;2022-08-03T08:18:59;26.60;90.60
39067;DHT22;24821;51.988;6.020;2022-08-03T08:21:26;26.70;90.60
39067;DHT22;24821;51.988;6.020;2022-08-03T08:23:52;26.90;90.10
39067;DHT22;24821;51.988;6.020;2022-08-03T08:26:17;27.00;89.90
39067;DHT22;24821;51.988;6.020;2022-08-03T08:28:43;27.00;88.60
39067;DHT22;24821;51.988;6.020;2022-08-03T08:31:08;27.10;88.70
39067;DHT22;24821;51.988;6.020;2022-08-03T08:33:34;27.30;88.10
39067;DHT22;24821;51.988;6.020;2022-08-03T08:36:00;27.50;88.40
39067;DHT22;24821;51.988;6.020;2022-08-03T08:38:25;27.80;87.20
39067;DHT22;24821;51.988;6.020;2022-08-03T08:40:54;28.10;86.50
39067;DHT22;24821;51.988;6.020;2022-08-03T08:43:20;28.50;85.60
39067;DHT22;24821;51.988;6.020;2022-08-03T08:45:48;28.80;84.60
39067;DHT22;24821;51.988;6.020;2022-08-03T08:48:18;29.10;83.60
39067;DHT22;24821;51.988;6.020;2022-08-03T08:50:47;29.30;82.00
39067;DHT22;24821;51.988;6.020;2022-08-03T08:53:14;29.50;81.20
39067;DHT22;24821;51.988;6.020;2022-08-03T08:55:40;29.70;80.10
39067;DHT22;24821;51.988;6.020;2022-08-03T08:58:09;29.90;79.40
39067;DHT22;24821;51.988;6.020;2022-08-03T09:00:35;30.00;78.80
39067;DHT22;24821;51.988;6.020;2022-08-03T09:03:00;30.00;78.80
39067;DHT22;24821;51.988;6.020;2022-08-03T09:05:26;30.20;78.40
39067;DHT22;24821;51.988;6.020;2022-08-03T09:07:52;30.40;78.20
39067;DHT22;24821;51.988;6.020;2022-08-03T09:10:18;30.70;77.40
39067;DHT22;24821;51.988;6.020;2022-08-03T09:12:47;30.80;75.70
39067;DHT22;24821;51.988;6.020;2022-08-03T09:17:42;31.10;75.10
39067;DHT22;24821;51.988;6.020;2022-08-03T09:20:07;31.20;73.80
39067;DHT22;24821;51.988;6.020;2022-08-03T09:22:34;31.20;74.10
39067;DHT22;24821;51.988;6.020;2022-08-03T09:25:04;31.20;73.50
39067;DHT22;24821;51.988;6.020;2022-08-03T09:27:41;31.30;71.80
39067;DHT22;24821;51.988;6.020;2022-08-03T09:30:17;31.20;72.10
39067;DHT22;24821;51.988;6.020;2022-08-03T09:32:43;31.10;72.30
39067;DHT22;24821;51.988;6.020;2022-08-03T09:35:11;31.20;72.00
39067;DHT22;24821;51.988;6.020;2022-08-03T09:37:38;31.30;71.20
39067;DHT22;24821;51.988;6.020;2022-08-03T09:40:04;31.30;71.20
39067;DHT22;24821;51.988;6.020;2022-08-03T09:42:30;31.30;69.90
39067;DHT22;24821;51.988;6.020;2022-08-03T09:44:56;31.30;69.50
39067;DHT22;24821;51.988;6.020;2022-08-03T09:47:33;31.20;69.70
39067;DHT22;24821;51.988;6.020;2022-08-03T09:50:02;31.20;69.90
39067;DHT22;24821;51.988;6.020;2022-08-03T09:52:38;31.30;70.10
39067;DHT22;24821;51.988;6.020;2022-08-03T09:55:11;31.30;69.10
39067;DHT22;24821;51.988;6.020;2022-08-03T09:57:37;31.50;69.80
39067;DHT22;24821;51.988;6.020;2022-08-03T10:00:13;31.50;68.00
39067;DHT22;24821;51.988;6.020;2022-08-03T10:02:40;31.50;70.20
39067;DHT22;24821;51.988;6.020;2022-08-03T10:05:07;31.50;70.70
39067;DHT22;24821;51.988;6.020;2022-08-03T10:07:43;31.80;68.90
39067;DHT22;24821;51.988;6.020;2022-08-03T10:10:09;31.90;68.60
39067;DHT22;24821;51.988;6.020;2022-08-03T10:12:36;31.90;68.40
39067;DHT22;24821;51.988;6.020;2022-08-03T10:15:02;32.00;69.30
39067;DHT22;24821;51.988;6.020;2022-08-03T10:17:28;32.10;68.30
39067;DHT22;24821;51.988;6.020;2022-08-03T10:19:53;32.20;68.30
39067;DHT22;24821;51.988;6.020;2022-08-03T10:22:25;32.00;68.20
39067;DHT22;24821;51.988;6.020;2022-08-03T10:25:05;31.80;68.00
39067;DHT22;24821;51.988;6.020;2022-08-03T10:27:34;31.60;69.10
39067;DHT22;24821;51.988;6.020;2022-08-03T10:30:02;31.60;69.50
39067;DHT22;24821;51.988;6.020;2022-08-03T10:32:48;31.60;69.60
39067;DHT22;24821;51.988;6.020;2022-08-03T10:35:18;31.50;70.20
39067;DHT22;24821;51.988;6.020;2022-08-03T10:37:51;31.30;69.20
39067;DHT22;24821;51.988;6.020;2022-08-03T10:40:21;31.30;69.80
39067;DHT22;24821;51.988;6.020;2022-08-03T10:42:49;31.20;69.10
39067;DHT22;24821;51.988;6.020;2022-08-03T10:45:19;31.10;69.10
39067;DHT22;24821;51.988;6.020;2022-08-03T10:47:47;31.10;69.90
39067;DHT22;24821;51.988;6.020;2022-08-03T10:50:13;31.10;70.00
39067;DHT22;24821;51.988;6.020;2022-08-03T10:53:08;31.00;69.60
39067;DHT22;24821;51.988;6.020;2022-08-03T10:55:36;31.10;70.70
39067;DHT22;24821;51.988;6.020;2022-08-03T11:01:09;31.10;69.60
39067;DHT22;24821;51.988;6.020;2022-08-03T11:04:14;31.10;68.90
39067;DHT22;24821;51.988;6.020;2022-08-03T11:06:40;31.10;68.60
39067;DHT22;24821;51.988;6.020;2022-08-03T11:11:35;30.90;68.80
39067;DHT22;24821;51.988;6.020;2022-08-03T11:14:06;30.90;69.00
39067;DHT22;24821;51.988;6.020;2022-08-03T11:16:40;30.90;68.90
39067;DHT22;24821;51.988;6.020;2022-08-03T11:19:11;30.90;67.30
39067;DHT22;24821;51.988;6.020;2022-08-03T11:35:14;31.00;67.60
39067;DHT22;24821;51.988;6.020;2022-08-03T11:40:47;30.90;67.10
39067;DHT22;24821;51.988;6.020;2022-08-03T11:48:49;31.10;67.80
39067;DHT22;24821;51.988;6.020;2022-08-03T11:51:22;31.20;67.20
39067;DHT22;24821;51.988;6.020;2022-08-03T11:54:03;31.20;67.80
39067;DHT22;24821;51.988;6.020;2022-08-03T11:56:44;31.30;67.30
39067;DHT22;24821;51.988;6.020;2022-08-03T11:59:09;31.30;66.10
39067;DHT22;24821;51.988;6.020;2022-08-03T12:01:35;31.30;65.70
39067;DHT22;24821;51.988;6.020;2022-08-03T12:04:03;31.40;64.60
39067;DHT22;24821;51.988;6.020;2022-08-03T12:06:29;31.50;64.20
39067;DHT22;24821;51.988;6.020;2022-08-03T12:08:55;31.50;65.20
39067;DHT22;24821;51.988;6.020;2022-08-03T12:11:20;31.50;65.50
39067;DHT22;24821;51.988;6.020;2022-08-03T12:13:48;31.60;64.80
39067;DHT22;24821;51.988;6.020;2022-08-03T12:16:23;31.60;64.80
39067;DHT22;24821;51.988;6.020;2022-08-03T12:18:57;31.70;64.80
39067;DHT22;24821;51.988;6.020;2022-08-03T12:21:23;31.70;63.80
39067;DHT22;24821;51.988;6.020;2022-08-03T12:23:49;31.70;65.00
39067;DHT22;24821;51.988;6.020;2022-08-03T12:26:15;31.90;63.80
39067;DHT22;24821;51.988;6.020;2022-08-03T12:28:47;31.90;62.30
39067;DHT22;24821;51.988;6.020;2022-08-03T12:31:13;31.90;63.30
39067;DHT22;24821;51.988;6.020;2022-08-03T12:34:03;31.90;63.00
39067;DHT22;24821;51.988;6.020;2022-08-03T12:36:33;31.90;62.30
39067;DHT22;24821;51.988;6.020;2022-08-03T12:39:01;31.90;63.10
39067;DHT22;24821;51.988;6.020;2022-08-03T12:41:33;32.00;62.50
39067;DHT22;24821;51.988;6.020;2022-08-03T12:44:03;32.00;62.80
39067;DHT22;24821;51.988;6.020;2022-08-03T12:46:35;32.00;62.80
39067;DHT22;24821;51.988;6.020;2022-08-03T12:49:14;32.20;63.30
39067;DHT22;24821;51.988;6.020;2022-08-03T12:54:07;32.20;62.00
39067;DHT22;24821;51.988;6.020;2022-08-03T12:56:33;32.30;61.80
39067;DHT22;24821;51.988;6.020;2022-08-03T12:58:58;32.30;61.90
39067;DHT22;24821;51.988;6.020;2022-08-03T13:01:24;32.30;62.10
39067;DHT22;24821;51.988;6.020;2022-08-03T13:03:52;32.40;61.40
39067;DHT22;24821;51.988;6.020;2022-08-03T13:06:25;32.40;61.60
39067;DHT22;24821;51.988;6.020;2022-08-03T13:09:06;32.40;61.30
39067;DHT22;24821;51.988;6.020;2022-08-03T13:11:32;32.40;62.00
39067;DHT22;24821;51.988;6.020;2022-08-03T13:13:58;32.50;61.80
39067;DHT22;24821;51.988;6.020;2022-08-03T13:16:24;32.50;62.00
39067;DHT22;24821;51.988;6.020;2022-08-03T13:18:50;32.60;61.10
39067;DHT22;24821;51.988;6.020;2022-08-03T13:21:18;32.60;61.00
39067;DHT22;24821;51.988;6.020;2022-08-03T13:23:44;32.70;60.60
39067;DHT22;24821;51.988;6.020;2022-08-03T13:26:10;32.80;60.50
39067;DHT22;24821;51.988;6.020;2022-08-03T13:28:37;32.80;59.80
39067;DHT22;24821;51.988;6.020;2022-08-03T13:31:03;32.70;59.70
39067;DHT22;24821;51.988;6.020;2022-08-03T13:33:29;32.80;60.00
39067;DHT22;24821;51.988;6.020;2022-08-03T13:35:54;32.70;60.40
39067;DHT22;24821;51.988;6.020;2022-08-03T13:38:20;32.80;60.40
39067;DHT22;24821;51.988;6.020;2022-08-03T13:40:46;32.70;61.20
39067;DHT22;24821;51.988;6.020;2022-08-03T13:43:11;32.70;60.20
39067;DHT22;24821;51.988;6.020;2022-08-03T13:45:37;32.70;61.00
39067;DHT22;24821;51.988;6.020;2022-08-03T13:48:03;32.70;61.00
39067;DHT22;24821;51.988;6.020;2022-08-03T13:50:28;32.70;60.50
39067;DHT22;24821;51.988;6.020;2022-08-03T13:52:55;32.60;61.30
39067;DHT22;24821;51.988;6.020;2022-08-03T13:55:21;32.70;60.80
39067;DHT22;24821;51.988;6.020;2022-08-03T13:57:47;32.70;62.10
39067;DHT22;24821;51.988;6.020;2022-08-03T14:00:13;32.70;62.30
39067;DHT22;24821;51.988;6.020;2022-08-03T14:02:39;32.70;62.20
39067;DHT22;24821;51.988;6.020;2022-08-03T14:05:04;32.70;62.10
39067;DHT22;24821;51.988;6.020;2022-08-03T14:07:30;32.60;62.00
39067;DHT22;24821;51.988;6.020;2022-08-03T14:09:55;32.50;62.20
39067;DHT22;24821;51.988;6.020;2022-08-03T14:12:21;32.50;62.60
39067;DHT22;24821;51.988;6.020;2022-08-03T14:14:46;32.50;62.90
39067;DHT22;24821;51.988;6.020;2022-08-03T14:17:12;32.40;62.60
39067;DHT22;24821;51.988;6.020;2022-08-03T14:19:37;32.40;63.50
39067;DHT22;24821;51.988;6.020;2022-08-03T14:22:03;32.30;63.30
39067;DHT22;24821;51.988;6.020;2022-08-03T14:24:28;32.40;63.70
39067;DHT22;24821;51.988;6.020;2022-08-03T14:26:54;32.50;63.00
39067;DHT22;24821;51.988;6.020;2022-08-03T14:29:19;32.40;62.90
39067;DHT22;24821;51.988;6.020;2022-08-03T14:31:45;32.50;63.60
39067;DHT22;24821;51.988;6.020;2022-08-03T14:34:10;32.50;63.50
39067;DHT22;24821;51.988;6.020;2022-08-03T14:36:36;32.40;63.80
39067;DHT22;24821;51.988;6.020;2022-08-03T14:39:02;32.40;64.20
39067;DHT22;24821;51.988;6.020;2022-08-03T14:41:27;32.50;64.10
39067;DHT22;24821;51.988;6.020;2022-08-03T14:43:53;32.50;63.70
39067;DHT22;24821;51.988;6.020;2022-08-03T14:46:21;32.50;63.70
39067;DHT22;24821;51.988;6.020;2022-08-03T14:48:46;32.40;63.50
39067;DHT22;24821;51.988;6.020;2022-08-03T14:51:12;32.40;64.40
39067;DHT22;24821;51.988;6.020;2022-08-03T14:53:37;32.40;64.00
39067;DHT22;24821;51.988;6.020;2022-08-03T14:56:03;32.40;64.10
39067;DHT22;24821;51.988;6.020;2022-08-03T14:58:28;32.40;64.00
39067;DHT22;24821;51.988;6.020;2022-08-03T15:00:55;32.40;64.50
39067;DHT22;24821;51.988;6.020;2022-08-03T15:03:21;32.40;64.80
39067;DHT22;24821;51.988;6.020;2022-08-03T15:05:53;32.40;64.10
39067;DHT22;24821;51.988;6.020;2022-08-03T15:08:23;32.40;64.30
39067;DHT22;24821;51.988;6.020;2022-08-03T15:10:49;32.40;64.90
39067;DHT22;24821;51.988;6.020;2022-08-03T15:13:15;32.50;64.40
39067;DHT22;24821;51.988;6.020;2022-08-03T15:15:41;32.50;64.50
39067;DHT22;24821;51.988;6.020;2022-08-03T15:18:07;32.50;64.30
39067;DHT22;24821;51.988;6.020;2022-08-03T15:20:33;32.50;64.00
39067;DHT22;24821;51.988;6.020;2022-08-03T15:22:58;32.40;64.00
39067;DHT22;24821;51.988;6.020;2022-08-03T15:25:24;32.50;64.10
39067;DHT22;24821;51.988;6.020;2022-08-03T15:27:50;32.40;63.60
39067;DHT22;24821;51.988;6.020;2022-08-03T15:30:15;32.40;64.80
39067;DHT22;24821;51.988;6.020;2022-08-03T15:32:41;32.40;64.70
39067;DHT22;24821;51.988;6.020;2022-08-03T15:35:07;32.50;65.00
39067;DHT22;24821;51.988;6.020;2022-08-03T15:37:32;32.50;64.40
39067;DHT22;24821;51.988;6.020;2022-08-03T15:39:58;32.50;63.90
39067;DHT22;24821;51.988;6.020;2022-08-03T15:42:23;32.50;64.30
39067;DHT22;24821;51.988;6.020;2022-08-03T15:44:49;32.50;64.00
39067;DHT22;24821;51.988;6.020;2022-08-03T15:47:14;32.50;63.80
39067;DHT22;24821;51.988;6.020;2022-08-03T15:49:40;32.50;63.40
39067;DHT22;24821;51.988;6.020;2022-08-03T15:52:06;32.40;63.40
39067;DHT22;24821;51.988;6.020;2022-08-03T15:54:31;32.40;63.20
39067;DHT22;24821;51.988;6.020;2022-08-03T15:56:57;32.40;63.80
39067;DHT22;24821;51.988;6.020;2022-08-03T15:59:22;32.30;63.40
39067;DHT22;24821;51.988;6.020;2022-08-03T16:01:48;32.30;63.80
39067;DHT22;24821;51.988;6.020;2022-08-03T16:04:14;32.30;63.80
39067;DHT22;24821;51.988;6.020;2022-08-03T16:06:40;32.30;63.50
39067;DHT22;24821;51.988;6.020;2022-08-03T16:09:06;32.20;63.60
39067;DHT22;24821;51.988;6.020;2022-08-03T16:11:32;32.20;63.70